sensor_id;sensor_type;location;lat;lon;timestamp;P1;durP1;ratioP1;P2;durP2;ratioP2
22470;SDS011;11402;51.374;6.594;2023-11-19T00:01:11;0.60;;;0.50;;
22470;SDS011;11402;51.374;6.594;2023-11-19T00:03:37;0.70;;;0.60;;
22470;SDS011;11402;51.374;6.594;2023-11-19T00:06:03;0.85;;;0.60;;
22470;SDS011;11402;51.374;6.594;2023-11-19T00:08:29;0.40;;;0.40;;
22470;SDS011;11402;51.374;6.594;2023-11-19T00:10:55;0.38;;;0.22;;
22470;SDS011;11402;51.374;6.594;2023-11-19T00:13:21;0.30;;;0.30;;
22470;SDS011;11402;51.374;6.594;2023-11-19T00:15:48;0.40;;;0.40;;
22470;SDS011;11402;51.374;6.594;2023-11-19T00:18:14;0.50;;;0.50;;
22470;SDS011;11402;51.374;6.594;2023-11-19T00:20:40;0.47;;;0.40;;
22470;SDS011;11402;51.374;6.594;2023-11-19T00:23:09;0.55;;;0.40;;
22470;SDS011;11402;51.374;6.594;2023-11-19T00:25:35;0.63;;;0.40;;
22470;SDS011;11402;51.374;6.594;2023-11-19T00:28:03;0.30;;;0.30;;
22470;SDS011;11402;51.374;6.594;2023-11-19T00:30:29;0.73;;;0.30;;
22470;SDS011;11402;51.374;6.594;2023-11-19T00:32:56;2.33;;;0.50;;
22470;SDS011;11402;51.374;6.594;2023-11-19T00:35:22;0.10;;;0.10;;
22470;SDS011;11402;51.374;6.594;2023-11-19T00:37:48;0.00;;;0.00;;
22470;SDS011;11402;51.374;6.594;2023-11-19T00:40:14;0.50;;;0.40;;
22470;SDS011;11402;51.374;6.594;2023-11-19T00:42:43;0.05;;;0.05;;
22470;SDS011;11402;51.374;6.594;2023-11-19T00:45:09;0.03;;;0.03;;
22470;SDS011;11402;51.374;6.594;2023-11-19T00:47:37;0.00;;;0.00;;
22470;SDS011;11402;51.374;6.594;2023-11-19T00:50:03;0.00;;;0.00;;
22470;SDS011;11402;51.374;6.594;2023-11-19T00:52:29;0.00;;;0.00;;
22470;SDS011;11402;51.374;6.594;2023-11-19T00:54:55;2.20;;;1.48;;
22470;SDS011;11402;51.374;6.594;2023-11-19T00:57:22;0.45;;;0.40;;
22470;SDS011;11402;51.374;6.594;2023-11-19T00:59:50;0.63;;;0.50;;
22470;SDS011;11402;51.374;6.594;2023-11-19T01:02:16;0.00;;;0.00;;
22470;SDS011;11402;51.374;6.594;2023-11-19T01:04:42;0.38;;;0.25;;
22470;SDS011;11402;51.374;6.594;2023-11-19T01:07:08;0.88;;;0.88;;
22470;SDS011;11402;51.374;6.594;2023-11-19T01:09:37;0.10;;;0.10;;
22470;SDS011;11402;51.374;6.594;2023-11-19T01:12:03;0.73;;;0.73;;
22470;SDS011;11402;51.374;6.594;2023-11-19T01:14:29;0.98;;;0.90;;
22470;SDS011;11402;51.374;6.594;2023-11-19T01:16:55;0.15;;;0.15;;
22470;SDS011;11402;51.374;6.594;2023-11-19T01:19:21;0.03;;;0.03;;
22470;SDS011;11402;51.374;6.594;2023-11-19T01:21:48;0.13;;;0.10;;
22470;SDS011;11402;51.374;6.594;2023-11-19T01:24:14;0.10;;;0.10;;
22470;SDS011;11402;51.374;6.594;2023-11-19T01:26:40;0.00;;;0.00;;
22470;SDS011;11402;51.374;6.594;2023-11-19T01:29:10;1.02;;;0.70;;
22470;SDS011;11402;51.374;6.594;2023-11-19T01:31:38;0.95;;;0.63;;
22470;SDS011;11402;51.374;6.594;2023-11-19T01:34:04;0.75;;;0.60;;
22470;SDS011;11402;51.374;6.594;2023-11-19T01:36:30;0.85;;;0.80;;
22470;SDS011;11402;51.374;6.594;2023-11-19T01:38:56;0.93;;;0.70;;
22470;SDS011;11402;51.374;6.594;2023-11-19T01:41:22;0.80;;;0.73;;
22470;SDS011;11402;51.374;6.594;2023-11-19T01:43:50;0.68;;;0.68;;
22470;SDS011;11402;51.374;6.594;2023-11-19T01:46:16;1.23;;;0.88;;
22470;SDS011;11402;51.374;6.594;2023-11-19T01:48:45;1.13;;;0.70;;
22470;SDS011;11402;51.374;6.594;2023-11-19T01:51:12;0.50;;;0.50;;
22470;SDS011;11402;51.374;6.594;2023-11-19T01:53:38;0.60;;;0.40;;
22470;SDS011;11402;51.374;6.594;2023-11-19T01:56:06;1.10;;;0.47;;
22470;SDS011;11402;51.374;6.594;2023-11-19T01:58:35;0.50;;;0.40;;
22470;SDS011;11402;51.374;6.594;2023-11-19T02:01:01;0.70;;;0.40;;
22470;SDS011;11402;51.374;6.594;2023-11-19T02:03:29;0.32;;;0.20;;
22470;SDS011;11402;51.374;6.594;2023-11-19T02:05:56;0.00;;;0.00;;
22470;SDS011;11402;51.374;6.594;2023-11-19T02:08:22;0.00;;;0.00;;
22470;SDS011;11402;51.374;6.594;2023-11-19T02:10:48;0.20;;;0.10;;
22470;SDS011;11402;51.374;6.594;2023-11-19T02:13:14;0.00;;;0.00;;
22470;SDS011;11402;51.374;6.594;2023-11-19T02:15:41;0.00;;;0.00;;
22470;SDS011;11402;51.374;6.594;2023-11-19T02:18:20;0.43;;;0.15;;
22470;SDS011;11402;51.374;6.594;2023-11-19T02:20:47;0.80;;;0.45;;
22470;SDS011;11402;51.374;6.594;2023-11-19T02:23:13;0.00;;;0.00;;
22470;SDS011;11402;51.374;6.594;2023-11-19T02:25:39;0.00;;;0.00;;
22470;SDS011;11402;51.374;6.594;2023-11-19T02:28:06;0.00;;;0.00;;
22470;SDS011;11402;51.374;6.594;2023-11-19T02:30:32;0.32;;;0.10;;
22470;SDS011;11402;51.374;6.594;2023-11-19T02:32:59;0.00;;;0.00;;
22470;SDS011;11402;51.374;6.594;2023-11-19T02:35:30;0.00;;;0.00;;
22470;SDS011;11402;51.374;6.594;2023-11-19T02:37:56;0.00;;;0.00;;
22470;SDS011;11402;51.374;6.594;2023-11-19T02:40:22;0.00;;;0.00;;
22470;SDS011;11402;51.374;6.594;2023-11-19T02:42:52;0.00;;;0.00;;
22470;SDS011;11402;51.374;6.594;2023-11-19T02:45:19;0.00;;;0.00;;
22470;SDS011;11402;51.374;6.594;2023-11-19T02:47:47;0.00;;;0.00;;
22470;SDS011;11402;51.374;6.594;2023-11-19T02:50:13;0.00;;;0.00;;
22470;SDS011;11402;51.374;6.594;2023-11-19T02:52:40;0.00;;;0.00;;
22470;SDS011;11402;51.374;6.594;2023-11-19T02:55:06;0.00;;;0.00;;
22470;SDS011;11402;51.374;6.594;2023-11-19T02:57:37;0.40;;;0.30;;
22470;SDS011;11402;51.374;6.594;2023-11-19T03:02:39;1.25;;;0.60;;
22470;SDS011;11402;51.374;6.594;2023-11-19T03:05:10;1.98;;;0.82;;
22470;SDS011;11402;51.374;6.594;2023-11-19T03:07:37;1.40;;;0.65;;
22470;SDS011;11402;51.374;6.594;2023-11-19T03:10:02;0.10;;;0.10;;
22470;SDS011;11402;51.374;6.594;2023-11-19T03:12:30;0.00;;;0.00;;
22470;SDS011;11402;51.374;6.594;2023-11-19T03:14:56;0.03;;;0.00;;
22470;SDS011;11402;51.374;6.594;2023-11-19T03:17:22;1.83;;;0.70;;
22470;SDS011;11402;51.374;6.594;2023-11-19T03:19:49;0.10;;;0.10;;
22470;SDS011;11402;51.374;6.594;2023-11-19T03:22:15;0.90;;;0.60;;
22470;SDS011;11402;51.374;6.594;2023-11-19T03:24:41;0.98;;;0.60;;
22470;SDS011;11402;51.374;6.594;2023-11-19T03:27:07;1.00;;;0.65;;
22470;SDS011;11402;51.374;6.594;2023-11-19T03:29:33;1.45;;;0.85;;
22470;SDS011;11402;51.374;6.594;2023-11-19T03:31:59;1.75;;;0.82;;
22470;SDS011;11402;51.374;6.594;2023-11-19T03:34:25;2.20;;;1.00;;
22470;SDS011;11402;51.374;6.594;2023-11-19T03:36:51;3.55;;;1.10;;
22470;SDS011;11402;51.374;6.594;2023-11-19T03:39:17;1.85;;;0.85;;
22470;SDS011;11402;51.374;6.594;2023-11-19T03:41:45;2.08;;;0.80;;
22470;SDS011;11402;51.374;6.594;2023-11-19T03:44:12;1.58;;;0.85;;
22470;SDS011;11402;51.374;6.594;2023-11-19T03:46:38;1.80;;;1.00;;
22470;SDS011;11402;51.374;6.594;2023-11-19T03:49:04;3.03;;;0.90;;
22470;SDS011;11402;51.374;6.594;2023-11-19T03:51:31;2.03;;;0.90;;
22470;SDS011;11402;51.374;6.594;2023-11-19T03:53:59;1.88;;;0.90;;
22470;SDS011;11402;51.374;6.594;2023-11-19T03:56:25;2.47;;;1.27;;
22470;SDS011;11402;51.374;6.594;2023-11-19T03:58:52;2.47;;;1.05;;
22470;SDS011;11402;51.374;6.594;2023-11-19T04:01:18;2.88;;;1.20;;
22470;SDS011;11402;51.374;6.594;2023-11-19T04:03:44;3.20;;;1.00;;
22470;SDS011;11402;51.374;6.594;2023-11-19T04:06:10;3.08;;;1.30;;
22470;SDS011;11402;51.374;6.594;2023-11-19T04:08:36;1.95;;;1.02;;
22470;SDS011;11402;51.374;6.594;2023-11-19T04:11:03;2.53;;;1.10;;
22470;SDS011;11402;51.374;6.594;2023-11-19T04:13:29;2.72;;;1.40;;
22470;SDS011;11402;51.374;6.594;2023-11-19T04:15:55;3.05;;;1.25;;
22470;SDS011;11402;51.374;6.594;2023-11-19T04:18:21;3.10;;;1.15;;
22470;SDS011;11402;51.374;6.594;2023-11-19T04:20:47;2.45;;;1.17;;
22470;SDS011;11402;51.374;6.594;2023-11-19T04:23:13;3.20;;;1.30;;
22470;SDS011;11402;51.374;6.594;2023-11-19T04:25:39;0.68;;;0.43;;
22470;SDS011;11402;51.374;6.594;2023-11-19T04:28:05;2.25;;;0.95;;
22470;SDS011;11402;51.374;6.594;2023-11-19T04:30:31;5.47;;;1.60;;
22470;SDS011;11402;51.374;6.594;2023-11-19T04:32:57;5.68;;;1.85;;
22470;SDS011;11402;51.374;6.594;2023-11-19T04:35:23;2.47;;;1.20;;
22470;SDS011;11402;51.374;6.594;2023-11-19T04:37:51;8.90;;;2.28;;
22470;SDS011;11402;51.374;6.594;2023-11-19T04:40:17;8.63;;;2.20;;
22470;SDS011;11402;51.374;6.594;2023-11-19T04:42:43;5.60;;;2.00;;
22470;SDS011;11402;51.374;6.594;2023-11-19T04:45:10;2.25;;;1.20;;
22470;SDS011;11402;51.374;6.594;2023-11-19T04:47:36;1.70;;;0.88;;
22470;SDS011;11402;51.374;6.594;2023-11-19T04:50:02;2.22;;;1.15;;
22470;SDS011;11402;51.374;6.594;2023-11-19T04:52:28;0.30;;;0.30;;
22470;SDS011;11402;51.374;6.594;2023-11-19T04:54:54;3.75;;;1.48;;
22470;SDS011;11402;51.374;6.594;2023-11-19T04:57:20;2.90;;;1.40;;
22470;SDS011;11402;51.374;6.594;2023-11-19T04:59:46;3.92;;;1.75;;
22470;SDS011;11402;51.374;6.594;2023-11-19T05:02:12;6.30;;;2.33;;
22470;SDS011;11402;51.374;6.594;2023-11-19T05:04:43;3.97;;;1.45;;
22470;SDS011;11402;51.374;6.594;2023-11-19T05:07:10;8.20;;;2.25;;
22470;SDS011;11402;51.374;6.594;2023-11-19T05:09:36;7.40;;;2.22;;
22470;SDS011;11402;51.374;6.594;2023-11-19T05:12:02;10.10;;;2.33;;
22470;SDS011;11402;51.374;6.594;2023-11-19T05:14:28;8.05;;;2.30;;
22470;SDS011;11402;51.374;6.594;2023-11-19T05:16:54;8.25;;;2.58;;
22470;SDS011;11402;51.374;6.594;2023-11-19T05:19:20;5.22;;;1.83;;
22470;SDS011;11402;51.374;6.594;2023-11-19T05:21:46;10.70;;;2.50;;
22470;SDS011;11402;51.374;6.594;2023-11-19T05:24:12;9.55;;;2.65;;
22470;SDS011;11402;51.374;6.594;2023-11-19T05:26:39;9.25;;;2.45;;
22470;SDS011;11402;51.374;6.594;2023-11-19T05:29:05;8.52;;;2.38;;
22470;SDS011;11402;51.374;6.594;2023-11-19T05:31:31;7.38;;;2.25;;
22470;SDS011;11402;51.374;6.594;2023-11-19T05:33:57;8.93;;;2.70;;
22470;SDS011;11402;51.374;6.594;2023-11-19T05:36:23;10.15;;;2.90;;
22470;SDS011;11402;51.374;6.594;2023-11-19T05:38:49;7.28;;;2.05;;
22470;SDS011;11402;51.374;6.594;2023-11-19T05:41:15;10.90;;;3.00;;
22470;SDS011;11402;51.374;6.594;2023-11-19T05:43:41;11.10;;;2.75;;
22470;SDS011;11402;51.374;6.594;2023-11-19T05:46:07;7.82;;;2.55;;
22470;SDS011;11402;51.374;6.594;2023-11-19T05:48:33;6.43;;;2.05;;
22470;SDS011;11402;51.374;6.594;2023-11-19T05:50:59;5.95;;;1.98;;
22470;SDS011;11402;51.374;6.594;2023-11-19T05:53:25;12.13;;;2.50;;
22470;SDS011;11402;51.374;6.594;2023-11-19T05:55:51;12.75;;;3.17;;
22470;SDS011;11402;51.374;6.594;2023-11-19T05:58:27;10.02;;;2.65;;
22470;SDS011;11402;51.374;6.594;2023-11-19T06:00:53;8.13;;;2.28;;
22470;SDS011;11402;51.374;6.594;2023-11-19T06:03:19;1.88;;;0.93;;
22470;SDS011;11402;51.374;6.594;2023-11-19T06:05:46;5.55;;;2.15;;
22470;SDS011;11402;51.374;6.594;2023-11-19T06:08:12;0.00;;;0.00;;
22470;SDS011;11402;51.374;6.594;2023-11-19T06:10:40;1.38;;;0.35;;
22470;SDS011;11402;51.374;6.594;2023-11-19T06:13:06;8.82;;;2.42;;
22470;SDS011;11402;51.374;6.594;2023-11-19T06:15:34;7.72;;;2.22;;
22470;SDS011;11402;51.374;6.594;2023-11-19T06:18:01;7.55;;;2.35;;
22470;SDS011;11402;51.374;6.594;2023-11-19T06:20:28;7.25;;;2.22;;
22470;SDS011;11402;51.374;6.594;2023-11-19T06:22:55;4.18;;;1.67;;
22470;SDS011;11402;51.374;6.594;2023-11-19T06:25:21;3.80;;;1.58;;
22470;SDS011;11402;51.374;6.594;2023-11-19T06:27:48;5.38;;;1.83;;
22470;SDS011;11402;51.374;6.594;2023-11-19T06:30:14;1.17;;;0.68;;
22470;SDS011;11402;51.374;6.594;2023-11-19T06:32:41;1.08;;;0.47;;
22470;SDS011;11402;51.374;6.594;2023-11-19T06:35:07;0.00;;;0.00;;
22470;SDS011;11402;51.374;6.594;2023-11-19T06:37:34;1.88;;;0.63;;
22470;SDS011;11402;51.374;6.594;2023-11-19T06:40:00;4.75;;;1.90;;
22470;SDS011;11402;51.374;6.594;2023-11-19T06:42:26;8.77;;;2.50;;
22470;SDS011;11402;51.374;6.594;2023-11-19T06:44:52;12.10;;;2.80;;
22470;SDS011;11402;51.374;6.594;2023-11-19T06:47:18;11.38;;;2.80;;
22470;SDS011;11402;51.374;6.594;2023-11-19T06:49:44;5.93;;;1.80;;
22470;SDS011;11402;51.374;6.594;2023-11-19T06:52:10;13.93;;;3.25;;
22470;SDS011;11402;51.374;6.594;2023-11-19T06:54:38;8.07;;;2.40;;
22470;SDS011;11402;51.374;6.594;2023-11-19T06:57:04;8.60;;;2.55;;
22470;SDS011;11402;51.374;6.594;2023-11-19T06:59:30;9.18;;;2.45;;
22470;SDS011;11402;51.374;6.594;2023-11-19T07:01:56;9.68;;;2.97;;
22470;SDS011;11402;51.374;6.594;2023-11-19T07:04:22;11.40;;;3.10;;
22470;SDS011;11402;51.374;6.594;2023-11-19T07:06:48;7.22;;;2.05;;
22470;SDS011;11402;51.374;6.594;2023-11-19T07:09:14;9.10;;;2.45;;
22470;SDS011;11402;51.374;6.594;2023-11-19T07:11:41;11.05;;;2.60;;
22470;SDS011;11402;51.374;6.594;2023-11-19T07:14:07;11.10;;;3.10;;
22470;SDS011;11402;51.374;6.594;2023-11-19T07:16:34;9.85;;;2.78;;
22470;SDS011;11402;51.374;6.594;2023-11-19T07:19:03;8.95;;;2.70;;
22470;SDS011;11402;51.374;6.594;2023-11-19T07:21:30;9.88;;;2.78;;
22470;SDS011;11402;51.374;6.594;2023-11-19T07:23:56;11.32;;;2.60;;
22470;SDS011;11402;51.374;6.594;2023-11-19T07:26:22;9.05;;;2.53;;
22470;SDS011;11402;51.374;6.594;2023-11-19T07:28:49;8.75;;;3.10;;
22470;SDS011;11402;51.374;6.594;2023-11-19T07:31:15;9.00;;;2.72;;
22470;SDS011;11402;51.374;6.594;2023-11-19T07:33:43;13.48;;;2.92;;
22470;SDS011;11402;51.374;6.594;2023-11-19T07:36:09;11.48;;;2.97;;
22470;SDS011;11402;51.374;6.594;2023-11-19T07:38:35;9.00;;;2.28;;
22470;SDS011;11402;51.374;6.594;2023-11-19T07:41:02;7.93;;;2.45;;
22470;SDS011;11402;51.374;6.594;2023-11-19T07:43:28;10.35;;;2.63;;
22470;SDS011;11402;51.374;6.594;2023-11-19T07:45:54;9.18;;;2.50;;
22470;SDS011;11402;51.374;6.594;2023-11-19T07:48:20;8.20;;;2.35;;
22470;SDS011;11402;51.374;6.594;2023-11-19T07:50:48;9.13;;;2.47;;
22470;SDS011;11402;51.374;6.594;2023-11-19T07:53:18;6.20;;;1.88;;
22470;SDS011;11402;51.374;6.594;2023-11-19T07:55:44;14.25;;;3.25;;
22470;SDS011;11402;51.374;6.594;2023-11-19T07:58:10;11.07;;;2.65;;
22470;SDS011;11402;51.374;6.594;2023-11-19T08:00:36;10.60;;;2.55;;
22470;SDS011;11402;51.374;6.594;2023-11-19T08:03:02;13.52;;;3.33;;
22470;SDS011;11402;51.374;6.594;2023-11-19T08:05:29;11.85;;;3.17;;
22470;SDS011;11402;51.374;6.594;2023-11-19T08:07:55;10.57;;;3.13;;
22470;SDS011;11402;51.374;6.594;2023-11-19T08:10:21;11.27;;;2.90;;
22470;SDS011;11402;51.374;6.594;2023-11-19T08:12:47;11.55;;;3.00;;
22470;SDS011;11402;51.374;6.594;2023-11-19T08:15:14;11.75;;;3.13;;
22470;SDS011;11402;51.374;6.594;2023-11-19T08:17:40;12.43;;;3.33;;
22470;SDS011;11402;51.374;6.594;2023-11-19T08:20:07;9.45;;;2.70;;
22470;SDS011;11402;51.374;6.594;2023-11-19T08:22:35;12.10;;;2.90;;
22470;SDS011;11402;51.374;6.594;2023-11-19T08:25:02;10.90;;;3.38;;
22470;SDS011;11402;51.374;6.594;2023-11-19T08:27:29;10.20;;;2.70;;
22470;SDS011;11402;51.374;6.594;2023-11-19T08:29:55;1.58;;;1.35;;
22470;SDS011;11402;51.374;6.594;2023-11-19T08:32:24;6.50;;;2.30;;
22470;SDS011;11402;51.374;6.594;2023-11-19T08:34:50;6.72;;;2.20;;
22470;SDS011;11402;51.374;6.594;2023-11-19T08:37:16;6.68;;;2.35;;
22470;SDS011;11402;51.374;6.594;2023-11-19T08:39:47;6.30;;;2.28;;
22470;SDS011;11402;51.374;6.594;2023-11-19T08:42:13;6.30;;;2.28;;
22470;SDS011;11402;51.374;6.594;2023-11-19T08:44:39;4.28;;;1.90;;
22470;SDS011;11402;51.374;6.594;2023-11-19T08:47:11;5.93;;;2.10;;
22470;SDS011;11402;51.374;6.594;2023-11-19T08:49:38;5.40;;;1.92;;
22470;SDS011;11402;51.374;6.594;2023-11-19T08:52:04;5.68;;;1.95;;
22470;SDS011;11402;51.374;6.594;2023-11-19T08:54:32;2.58;;;1.25;;
22470;SDS011;11402;51.374;6.594;2023-11-19T08:56:58;1.58;;;0.82;;
22470;SDS011;11402;51.374;6.594;2023-11-19T08:59:28;8.48;;;2.38;;
22470;SDS011;11402;51.374;6.594;2023-11-19T09:01:54;6.70;;;2.42;;
22470;SDS011;11402;51.374;6.594;2023-11-19T09:04:20;9.32;;;2.55;;
22470;SDS011;11402;51.374;6.594;2023-11-19T09:06:49;5.68;;;2.25;;
22470;SDS011;11402;51.374;6.594;2023-11-19T09:09:15;5.57;;;2.10;;
22470;SDS011;11402;51.374;6.594;2023-11-19T09:11:41;1.55;;;0.73;;
22470;SDS011;11402;51.374;6.594;2023-11-19T09:14:07;6.43;;;2.30;;
22470;SDS011;11402;51.374;6.594;2023-11-19T09:16:33;8.73;;;3.00;;
22470;SDS011;11402;51.374;6.594;2023-11-19T09:18:59;8.32;;;2.53;;
22470;SDS011;11402;51.374;6.594;2023-11-19T09:21:27;7.18;;;2.40;;
22470;SDS011;11402;51.374;6.594;2023-11-19T09:23:57;8.07;;;2.50;;
22470;SDS011;11402;51.374;6.594;2023-11-19T09:26:23;5.55;;;2.20;;
22470;SDS011;11402;51.374;6.594;2023-11-19T09:28:49;4.85;;;1.77;;
22470;SDS011;11402;51.374;6.594;2023-11-19T09:31:15;7.22;;;2.30;;
22470;SDS011;11402;51.374;6.594;2023-11-19T09:33:41;4.60;;;1.63;;
22470;SDS011;11402;51.374;6.594;2023-11-19T09:36:07;8.82;;;2.60;;
22470;SDS011;11402;51.374;6.594;2023-11-19T09:38:34;8.93;;;2.92;;
22470;SDS011;11402;51.374;6.594;2023-11-19T09:41:06;10.05;;;2.88;;
22470;SDS011;11402;51.374;6.594;2023-11-19T09:43:36;8.57;;;2.85;;
22470;SDS011;11402;51.374;6.594;2023-11-19T09:46:04;9.10;;;2.92;;
22470;SDS011;11402;51.374;6.594;2023-11-19T09:48:36;8.98;;;2.55;;
22470;SDS011;11402;51.374;6.594;2023-11-19T09:51:02;11.00;;;3.00;;
22470;SDS011;11402;51.374;6.594;2023-11-19T09:53:28;6.32;;;2.05;;
22470;SDS011;11402;51.374;6.594;2023-11-19T09:55:55;3.78;;;1.67;;
22470;SDS011;11402;51.374;6.594;2023-11-19T09:58:21;11.30;;;2.95;;
22470;SDS011;11402;51.374;6.594;2023-11-19T10:00:47;7.47;;;2.30;;
22470;SDS011;11402;51.374;6.594;2023-11-19T10:03:13;6.25;;;2.17;;
22470;SDS011;11402;51.374;6.594;2023-11-19T10:05:39;9.07;;;2.72;;
22470;SDS011;11402;51.374;6.594;2023-11-19T10:08:06;7.25;;;2.28;;
22470;SDS011;11402;51.374;6.594;2023-11-19T10:10:33;5.47;;;1.92;;
22470;SDS011;11402;51.374;6.594;2023-11-19T10:12:59;7.00;;;2.50;;
22470;SDS011;11402;51.374;6.594;2023-11-19T10:15:26;5.28;;;2.00;;
22470;SDS011;11402;51.374;6.594;2023-11-19T10:17:54;2.90;;;1.55;;
22470;SDS011;11402;51.374;6.594;2023-11-19T10:20:20;2.78;;;1.50;;
22470;SDS011;11402;51.374;6.594;2023-11-19T10:22:46;5.40;;;1.63;;
22470;SDS011;11402;51.374;6.594;2023-11-19T10:25:22;6.50;;;2.05;;
22470;SDS011;11402;51.374;6.594;2023-11-19T10:27:49;4.53;;;1.77;;
22470;SDS011;11402;51.374;6.594;2023-11-19T10:30:21;8.32;;;3.08;;
22470;SDS011;11402;51.374;6.594;2023-11-19T10:40:44;14.48;;;3.33;;
22470;SDS011;11402;51.374;6.594;2023-11-19T10:43:10;12.40;;;3.28;;
22470;SDS011;11402;51.374;6.594;2023-11-19T10:45:36;11.43;;;3.00;;
22470;SDS011;11402;51.374;6.594;2023-11-19T10:48:03;7.35;;;2.55;;
22470;SDS011;11402;51.374;6.594;2023-11-19T10:50:35;8.65;;;2.63;;
22470;SDS011;11402;51.374;6.594;2023-11-19T10:53:02;6.32;;;2.13;;
22470;SDS011;11402;51.374;6.594;2023-11-19T10:55:32;4.22;;;2.15;;
22470;SDS011;11402;51.374;6.594;2023-11-19T10:58:00;7.05;;;2.60;;
22470;SDS011;11402;51.374;6.594;2023-11-19T11:00:30;5.50;;;2.10;;
22470;SDS011;11402;51.374;6.594;2023-11-19T11:03:00;4.13;;;1.50;;
22470;SDS011;11402;51.374;6.594;2023-11-19T11:05:26;0.00;;;0.00;;
22470;SDS011;11402;51.374;6.594;2023-11-19T11:07:52;0.00;;;0.00;;
22470;SDS011;11402;51.374;6.594;2023-11-19T11:10:18;0.00;;;0.00;;
22470;SDS011;11402;51.374;6.594;2023-11-19T11:12:47;0.00;;;0.00;;
22470;SDS011;11402;51.374;6.594;2023-11-19T11:15:15;0.00;;;0.00;;
22470;SDS011;11402;51.374;6.594;2023-11-19T11:17:43;0.15;;;0.15;;
22470;SDS011;11402;51.374;6.594;2023-11-19T11:20:10;0.20;;;0.10;;
22470;SDS011;11402;51.374;6.594;2023-11-19T11:22:42;0.10;;;0.10;;
22470;SDS011;11402;51.374;6.594;2023-11-19T11:25:15;0.00;;;0.00;;
22470;SDS011;11402;51.374;6.594;2023-11-19T11:27:50;0.25;;;0.25;;
22470;SDS011;11402;51.374;6.594;2023-11-19T11:30:20;0.20;;;0.20;;
22470;SDS011;11402;51.374;6.594;2023-11-19T11:32:54;0.10;;;0.10;;
22470;SDS011;11402;51.374;6.594;2023-11-19T11:38:09;0.10;;;0.10;;
22470;SDS011;11402;51.374;6.594;2023-11-19T11:40:36;0.10;;;0.10;;
22470;SDS011;11402;51.374;6.594;2023-11-19T11:43:02;0.10;;;0.10;;
22470;SDS011;11402;51.374;6.594;2023-11-19T11:45:36;0.25;;;0.25;;
22470;SDS011;11402;51.374;6.594;2023-11-19T11:48:06;0.30;;;0.28;;
22470;SDS011;11402;51.374;6.594;2023-11-19T11:50:35;0.13;;;0.13;;
22470;SDS011;11402;51.374;6.594;2023-11-19T11:57:59;0.00;;;0.00;;
22470;SDS011;11402;51.374;6.594;2023-11-19T12:03:04;0.00;;;0.00;;
22470;SDS011;11402;51.374;6.594;2023-11-19T12:05:31;0.00;;;0.00;;
22470;SDS011;11402;51.374;6.594;2023-11-19T12:08:03;0.00;;;0.00;;
22470;SDS011;11402;51.374;6.594;2023-11-19T12:10:31;0.00;;;0.00;;
22470;SDS011;11402;51.374;6.594;2023-11-19T12:13:00;0.00;;;0.00;;
22470;SDS011;11402;51.374;6.594;2023-11-19T12:15:27;0.00;;;0.00;;
22470;SDS011;11402;51.374;6.594;2023-11-19T12:17:53;0.00;;;0.00;;
22470;SDS011;11402;51.374;6.594;2023-11-19T12:20:21;0.00;;;0.00;;
22470;SDS011;11402;51.374;6.594;2023-11-19T12:22:48;0.00;;;0.00;;
22470;SDS011;11402;51.374;6.594;2023-11-19T12:25:14;0.00;;;0.00;;
22470;SDS011;11402;51.374;6.594;2023-11-19T12:27:48;0.00;;;0.00;;
22470;SDS011;11402;51.374;6.594;2023-11-19T12:30:24;0.20;;;0.20;;
22470;SDS011;11402;51.374;6.594;2023-11-19T12:32:50;0.10;;;0.10;;
22470;SDS011;11402;51.374;6.594;2023-11-19T12:35:18;0.17;;;0.17;;
22470;SDS011;11402;51.374;6.594;2023-11-19T12:40:17;0.10;;;0.10;;
22470;SDS011;11402;51.374;6.594;2023-11-19T12:42:47;0.30;;;0.30;;
22470;SDS011;11402;51.374;6.594;2023-11-19T12:45:14;0.50;;;0.50;;
22470;SDS011;11402;51.374;6.594;2023-11-19T12:47:41;0.00;;;0.00;;
22470;SDS011;11402;51.374;6.594;2023-11-19T12:50:07;0.30;;;0.30;;
22470;SDS011;11402;51.374;6.594;2023-11-19T12:52:37;0.10;;;0.10;;
22470;SDS011;11402;51.374;6.594;2023-11-19T12:55:04;0.00;;;0.00;;
22470;SDS011;11402;51.374;6.594;2023-11-19T12:57:40;0.10;;;0.10;;
22470;SDS011;11402;51.374;6.594;2023-11-19T13:00:07;0.00;;;0.00;;
22470;SDS011;11402;51.374;6.594;2023-11-19T13:02:57;1.23;;;0.82;;
22470;SDS011;11402;51.374;6.594;2023-11-19T13:05:25;0.10;;;0.10;;
22470;SDS011;11402;51.374;6.594;2023-11-19T13:07:57;0.20;;;0.20;;
22470;SDS011;11402;51.374;6.594;2023-11-19T13:10:24;0.10;;;0.10;;
22470;SDS011;11402;51.374;6.594;2023-11-19T13:13:07;0.10;;;0.10;;
22470;SDS011;11402;51.374;6.594;2023-11-19T13:15:34;0.10;;;0.10;;
22470;SDS011;11402;51.374;6.594;2023-11-19T13:18:00;0.00;;;0.00;;
22470;SDS011;11402;51.374;6.594;2023-11-19T13:20:27;0.00;;;0.00;;
22470;SDS011;11402;51.374;6.594;2023-11-19T13:22:53;0.00;;;0.00;;
22470;SDS011;11402;51.374;6.594;2023-11-19T13:25:19;0.00;;;0.00;;
22470;SDS011;11402;51.374;6.594;2023-11-19T13:27:45;0.20;;;0.20;;
22470;SDS011;11402;51.374;6.594;2023-11-19T13:30:12;0.10;;;0.10;;
22470;SDS011;11402;51.374;6.594;2023-11-19T13:32:38;0.10;;;0.10;;
22470;SDS011;11402;51.374;6.594;2023-11-19T13:35:04;0.10;;;0.10;;
22470;SDS011;11402;51.374;6.594;2023-11-19T13:37:30;0.30;;;0.30;;
22470;SDS011;11402;51.374;6.594;2023-11-19T13:39:56;0.30;;;0.30;;
22470;SDS011;11402;51.374;6.594;2023-11-19T13:42:22;0.13;;;0.13;;
22470;SDS011;11402;51.374;6.594;2023-11-19T13:44:48;0.10;;;0.10;;
22470;SDS011;11402;51.374;6.594;2023-11-19T13:47:14;0.10;;;0.10;;
22470;SDS011;11402;51.374;6.594;2023-11-19T13:49:40;0.10;;;0.10;;
22470;SDS011;11402;51.374;6.594;2023-11-19T13:52:06;0.00;;;0.00;;
22470;SDS011;11402;51.374;6.594;2023-11-19T13:54:32;0.00;;;0.00;;
22470;SDS011;11402;51.374;6.594;2023-11-19T13:56:58;0.10;;;0.10;;
22470;SDS011;11402;51.374;6.594;2023-11-19T13:59:25;0.00;;;0.00;;
22470;SDS011;11402;51.374;6.594;2023-11-19T14:01:52;0.10;;;0.10;;
22470;SDS011;11402;51.374;6.594;2023-11-19T14:04:18;0.00;;;0.00;;
22470;SDS011;11402;51.374;6.594;2023-11-19T14:06:45;0.00;;;0.00;;
22470;SDS011;11402;51.374;6.594;2023-11-19T14:09:11;0.00;;;0.00;;
22470;SDS011;11402;51.374;6.594;2023-11-19T14:11:37;0.00;;;0.00;;
22470;SDS011;11402;51.374;6.594;2023-11-19T14:14:03;0.00;;;0.00;;
22470;SDS011;11402;51.374;6.594;2023-11-19T14:16:29;0.00;;;0.00;;
22470;SDS011;11402;51.374;6.594;2023-11-19T14:18:57;0.03;;;0.03;;
22470;SDS011;11402;51.374;6.594;2023-11-19T14:21:23;0.00;;;0.00;;
22470;SDS011;11402;51.374;6.594;2023-11-19T14:23:51;0.40;;;0.40;;
22470;SDS011;11402;51.374;6.594;2023-11-19T14:26:17;0.40;;;0.40;;
22470;SDS011;11402;51.374;6.594;2023-11-19T14:28:43;0.30;;;0.30;;
22470;SDS011;11402;51.374;6.594;2023-11-19T14:31:09;0.20;;;0.20;;
22470;SDS011;11402;51.374;6.594;2023-11-19T14:33:34;0.30;;;0.30;;
22470;SDS011;11402;51.374;6.594;2023-11-19T14:36:03;0.40;;;0.40;;
22470;SDS011;11402;51.374;6.594;2023-11-19T14:38:29;0.38;;;0.38;;
22470;SDS011;11402;51.374;6.594;2023-11-19T14:40:55;0.30;;;0.30;;
22470;SDS011;11402;51.374;6.594;2023-11-19T14:43:21;0.10;;;0.10;;
22470;SDS011;11402;51.374;6.594;2023-11-19T14:45:47;0.30;;;0.30;;
22470;SDS011;11402;51.374;6.594;2023-11-19T14:48:13;0.30;;;0.30;;
22470;SDS011;11402;51.374;6.594;2023-11-19T14:50:39;0.28;;;0.28;;
22470;SDS011;11402;51.374;6.594;2023-11-19T14:53:05;0.20;;;0.20;;
22470;SDS011;11402;51.374;6.594;2023-11-19T14:55:31;0.20;;;0.20;;
22470;SDS011;11402;51.374;6.594;2023-11-19T14:57:57;0.10;;;0.10;;
22470;SDS011;11402;51.374;6.594;2023-11-19T15:00:24;0.10;;;0.10;;
22470;SDS011;11402;51.374;6.594;2023-11-19T15:02:50;0.10;;;0.10;;
22470;SDS011;11402;51.374;6.594;2023-11-19T15:05:16;0.30;;;0.30;;
22470;SDS011;11402;51.374;6.594;2023-11-19T15:07:42;0.30;;;0.30;;